createdAt,value
2024-02-18T00:02:09.388Z,76.98
2024-02-18T00:04:36.019Z,77.45
2024-02-18T00:07:03.617Z,76.96
2024-02-18T00:09:31.002Z,76.83
2024-02-18T00:11:57.945Z,76.60
2024-02-18T00:14:24.651Z,78.01
2024-02-18T00:16:51.338Z,77.95
2024-02-18T00:19:18.074Z,77.88
2024-02-18T00:21:44.864Z,78.33
2024-02-18T00:24:11.723Z,78.50
2024-02-18T00:26:48.917Z,79.30
2024-02-18T00:29:24.672Z,79.05
2024-02-18T00:31:51.277Z,79.34
2024-02-18T00:34:24.755Z,78.34
2024-02-18T00:36:52.758Z,79.03
2024-02-18T00:39:19.843Z,79.65
2024-02-18T00:41:46.460Z,79.87
2024-02-18T00:44:13.254Z,80.22
2024-02-18T00:46:47.517Z,80.43
2024-02-18T00:49:20.807Z,79.43
2024-02-18T00:51:47.625Z,79.06
2024-02-18T00:54:14.749Z,79.62
2024-02-18T00:56:41.434Z,79.20
2024-02-18T00:59:08.087Z,78.73
2024-02-18T01:01:34.975Z,79.45
2024-02-18T01:04:02.391Z,79.22
2024-02-18T01:06:29.111Z,78.78
2024-02-18T01:08:55.604Z,78.92
2024-02-18T01:11:22.295Z,78.12
2024-02-18T01:13:49.017Z,77.77
2024-02-18T01:16:15.786Z,78.48
2024-02-18T01:18:44.267Z,79.12
2024-02-18T01:21:11.985Z,77.71
2024-02-18T01:23:38.554Z,78.11
2024-02-18T01:26:05.566Z,79.15
2024-02-18T01:28:32.112Z,79.13
2024-02-18T01:30:59.039Z,79.13
2024-02-18T01:33:25.715Z,78.17
2024-02-18T01:35:52.368Z,79.30
2024-02-18T01:38:18.991Z,79.22
2024-02-18T01:40:45.643Z,79.69
2024-02-18T01:43:14.448Z,79.66
2024-02-18T01:45:41.407Z,79.66
2024-02-18T01:48:09.270Z,79.82
2024-02-18T01:50:36.306Z,79.04
2024-02-18T01:53:04.273Z,79.13
2024-02-18T01:55:33.238Z,79.20
2024-02-18T01:58:01.432Z,79.17
2024-02-18T02:00:29.058Z,79.04
2024-02-18T02:02:55.841Z,77.79
2024-02-18T02:05:23.017Z,77.37
2024-02-18T02:07:53.020Z,77.15
2024-02-18T02:10:20.854Z,78.11
2024-02-18T02:12:48.399Z,77.95
2024-02-18T02:15:15.439Z,78.05
2024-02-18T02:17:42.071Z,77.97
2024-02-18T02:20:10.714Z,77.27
2024-02-18T02:22:38.757Z,77.71
2024-02-18T02:25:07.403Z,77.63
2024-02-18T02:27:41.789Z,77.49
2024-02-18T02:30:08.814Z,76.83
2024-02-18T02:32:38.420Z,76.73
2024-02-18T02:35:05.760Z,76.26
2024-02-18T02:37:32.510Z,75.85
2024-02-18T02:39:59.419Z,74.88
2024-02-18T02:42:26.387Z,74.39
2024-02-18T02:44:53.022Z,75.00
2024-02-18T02:47:19.631Z,75.33
2024-02-18T02:49:46.749Z,74.60
2024-02-18T02:52:13.439Z,74.70
2024-02-18T02:54:40.614Z,74.05
2024-02-18T02:57:07.540Z,72.89
2024-02-18T02:59:34.212Z,74.29
2024-02-18T03:02:00.975Z,74.63
2024-02-18T03:04:28.216Z,75.45
2024-02-18T03:06:55.029Z,75.18
2024-02-18T03:09:22.178Z,74.55
2024-02-18T03:11:49.110Z,74.89
2024-02-18T03:14:15.779Z,74.74
2024-02-18T03:16:42.598Z,74.37
2024-02-18T03:19:09.453Z,74.42
2024-02-18T03:21:36.465Z,73.99
2024-02-18T03:24:03.377Z,74.48
2024-02-18T03:26:30.966Z,74.46
2024-02-18T03:28:57.610Z,74.65
2024-02-18T03:31:24.208Z,74.72
2024-02-18T03:33:50.910Z,74.17
2024-02-18T03:36:17.673Z,74.38
2024-02-18T03:38:44.268Z,74.10
2024-02-18T03:41:10.952Z,74.10
2024-02-18T03:43:37.585Z,73.04
2024-02-18T03:46:04.427Z,72.72
2024-02-18T03:48:31.357Z,72.99
2024-02-18T03:50:58.275Z,73.95
2024-02-18T03:53:24.862Z,74.36
2024-02-18T03:55:51.791Z,74.17
2024-02-18T03:58:18.484Z,74.11
2024-02-18T04:00:48.024Z,74.59
2024-02-18T04:03:15.371Z,75.10
2024-02-18T04:05:45.471Z,75.79
2024-02-18T04:08:12.265Z,75.25
2024-02-18T04:10:38.954Z,76.21
2024-02-18T04:13:05.734Z,77.15
2024-02-18T04:15:32.612Z,76.80
2024-02-18T04:17:59.311Z,76.90
2024-02-18T04:20:26.010Z,76.29
2024-02-18T04:22:52.716Z,76.44
2024-02-18T04:25:19.304Z,75.89
2024-02-18T04:27:46.037Z,75.96
2024-02-18T04:30:13.016Z,75.31
2024-02-18T04:32:39.612Z,75.43
2024-02-18T04:35:06.558Z,75.47
2024-02-18T04:37:33.330Z,76.07
2024-02-18T04:40:00.089Z,75.04
2024-02-18T04:42:26.762Z,75.49
2024-02-18T04:44:53.367Z,75.28
2024-02-18T04:47:20.034Z,74.30
2024-02-18T04:49:46.942Z,73.87
2024-02-18T04:52:13.734Z,72.89
2024-02-18T04:54:40.894Z,73.00
2024-02-18T04:57:08.376Z,74.03
2024-02-18T04:59:37.975Z,74.78
2024-02-18T05:02:04.806Z,74.53
2024-02-18T05:04:32.964Z,75.18
2024-02-18T05:07:00.768Z,77.09
2024-02-18T05:09:27.684Z,76.99
2024-02-18T05:11:54.334Z,78.14
2024-02-18T05:14:21.468Z,77.66
2024-02-18T05:16:48.196Z,77.31
2024-02-18T05:19:15.630Z,77.99
2024-02-18T05:21:43.509Z,77.48
2024-02-18T05:24:11.346Z,78.35
2024-02-18T05:26:37.915Z,78.10
2024-02-18T05:29:04.690Z,77.04
2024-02-18T05:31:31.445Z,77.09
2024-02-18T05:33:58.510Z,77.40
2024-02-18T05:36:25.353Z,78.02
2024-02-18T05:38:52.181Z,77.54
2024-02-18T05:41:19.220Z,76.59
2024-02-18T05:43:45.785Z,77.29
2024-02-18T05:46:12.552Z,76.63
2024-02-18T05:48:40.322Z,76.37
2024-02-18T05:51:07.981Z,75.99
2024-02-18T05:53:35.138Z,76.78
2024-02-18T05:56:02.357Z,77.55
2024-02-18T05:58:28.956Z,77.44
2024-02-18T06:00:55.618Z,77.99
2024-02-18T06:03:22.559Z,77.88
2024-02-18T06:05:49.431Z,78.14
2024-02-18T06:08:16.087Z,78.76
2024-02-18T06:10:42.938Z,78.36
2024-02-18T06:13:09.791Z,78.01
2024-02-18T06:15:36.568Z,78.30
2024-02-18T06:18:03.533Z,78.48
2024-02-18T06:20:30.668Z,78.22
2024-02-18T06:22:57.624Z,78.61
2024-02-18T06:25:24.720Z,78.05
2024-02-18T06:27:52.127Z,77.83
2024-02-18T06:30:19.457Z,79.26
2024-02-18T06:32:46.085Z,78.81
2024-02-18T06:35:12.861Z,78.94
2024-02-18T06:37:40.820Z,78.86
2024-02-18T06:40:08.057Z,78.46
2024-02-18T06:42:34.797Z,78.50
2024-02-18T06:45:01.439Z,78.87
2024-02-18T06:47:28.148Z,79.29
2024-02-18T06:49:54.942Z,78.83
2024-02-18T06:52:23.040Z,78.66
2024-02-18T06:54:49.962Z,79.05
2024-02-18T06:57:16.643Z,78.58
2024-02-18T06:59:43.628Z,78.24
2024-02-18T07:02:11.251Z,78.10
2024-02-18T07:04:38.906Z,77.40
2024-02-18T07:07:05.508Z,77.11
2024-02-18T07:09:32.245Z,77.22
2024-02-18T07:11:58.921Z,76.67
2024-02-18T07:14:25.492Z,76.52
2024-02-18T07:16:52.070Z,76.21
2024-02-18T07:19:18.873Z,75.49
2024-02-18T07:21:45.608Z,75.11
2024-02-18T07:24:12.251Z,75.32
2024-02-18T07:26:39.934Z,74.55
2024-02-18T07:29:06.627Z,73.83
2024-02-18T07:31:33.213Z,73.43
2024-02-18T07:34:00.048Z,73.36
2024-02-18T07:36:28.825Z,74.04
2024-02-18T07:38:57.200Z,72.58
2024-02-18T07:41:26.297Z,72.39
2024-02-18T07:43:53.179Z,73.30
2024-02-18T07:46:20.308Z,73.05
2024-02-18T07:48:47.087Z,72.48
2024-02-18T07:51:13.886Z,72.15
2024-02-18T07:53:40.496Z,71.34
2024-02-18T07:56:07.486Z,71.57
2024-02-18T07:58:34.056Z,70.59
2024-02-18T08:01:00.828Z,70.70
2024-02-18T08:03:27.575Z,70.02
2024-02-18T08:05:54.184Z,69.52
2024-02-18T08:08:20.914Z,68.51
2024-02-18T08:10:48.405Z,67.81
2024-02-18T08:13:15.206Z,68.52
2024-02-18T08:15:41.946Z,68.01
2024-02-18T08:18:10.067Z,68.83
2024-02-18T08:20:41.599Z,67.14
2024-02-18T08:23:08.923Z,68.46
2024-02-18T08:25:36.712Z,67.67
2024-02-18T08:28:03.682Z,68.15
2024-02-18T08:30:30.592Z,67.08
2024-02-18T08:32:57.367Z,67.61
2024-02-18T08:35:24.435Z,67.13
2024-02-18T08:37:54.061Z,67.05
2024-02-18T08:40:20.835Z,66.34
2024-02-18T08:42:47.509Z,66.85
2024-02-18T08:45:14.266Z,66.79
2024-02-18T08:47:40.979Z,67.21
2024-02-18T08:50:08.231Z,66.66
2024-02-18T08:52:34.935Z,66.00
2024-02-18T08:55:01.581Z,64.17
2024-02-18T08:57:28.209Z,63.51
2024-02-18T08:59:54.879Z,63.98
2024-02-18T09:02:22.137Z,64.43
2024-02-18T09:04:48.873Z,63.83
2024-02-18T09:07:15.797Z,61.71
2024-02-18T09:09:42.416Z,61.82
2024-02-18T09:12:09.096Z,63.04
2024-02-18T09:14:35.737Z,61.98
2024-02-18T09:17:03.348Z,61.08
2024-02-18T09:19:30.020Z,60.45
2024-02-18T09:21:56.725Z,58.85
2024-02-18T09:24:23.295Z,57.89
2024-02-18T09:26:49.883Z,58.37
2024-02-18T09:29:16.512Z,58.05
2024-02-18T09:31:43.832Z,57.94
2024-02-18T09:34:10.685Z,57.07
2024-02-18T09:36:37.448Z,58.29
2024-02-18T09:39:04.139Z,56.95
2024-02-18T09:41:32.300Z,58.07
2024-02-18T09:44:07.261Z,56.55
2024-02-18T09:46:38.516Z,53.71
2024-02-18T09:49:09.197Z,54.55
2024-02-18T09:51:36.938Z,53.32
2024-02-18T09:54:07.994Z,51.21
2024-02-18T09:56:34.772Z,45.69
2024-02-18T09:59:01.388Z,44.50
2024-02-18T10:01:28.676Z,44.34
2024-02-18T10:03:55.544Z,44.26
2024-02-18T10:06:22.365Z,45.63
2024-02-18T10:08:56.549Z,46.91
2024-02-18T10:11:23.839Z,44.65
2024-02-18T10:13:53.849Z,44.03
2024-02-18T10:16:20.537Z,43.92
2024-02-18T10:18:47.419Z,44.17
2024-02-18T10:21:15.792Z,45.35
2024-02-18T10:23:43.446Z,42.71
2024-02-18T10:26:12.988Z,42.61
2024-02-18T10:28:42.627Z,42.61
2024-02-18T10:31:10.976Z,42.83
2024-02-18T10:33:38.483Z,43.26
2024-02-18T10:36:10.971Z,43.96
2024-02-18T10:38:43.753Z,42.91
2024-02-18T10:41:31.434Z,49.86
2024-02-18T10:44:00.228Z,50.87
2024-02-18T10:46:28.202Z,50.76
2024-02-18T10:49:01.025Z,51.54
2024-02-18T10:51:40.769Z,49.86
2024-02-18T10:54:12.882Z,50.21
2024-02-18T10:56:41.868Z,52.20
2024-02-18T10:59:23.364Z,47.83
2024-02-18T11:01:56.862Z,47.13
2024-02-18T11:04:26.332Z,45.23
2024-02-18T11:06:55.205Z,44.79
2024-02-18T11:09:23.133Z,44.92
2024-02-18T11:11:52.077Z,44.79
2024-02-18T11:14:20.004Z,45.13
2024-02-18T11:16:48.867Z,45.85
2024-02-18T11:19:16.423Z,46.12
2024-02-18T11:21:48.712Z,44.93
2024-02-18T11:24:15.354Z,46.01
2024-02-18T11:26:41.956Z,46.12
2024-02-18T11:29:08.651Z,45.48
2024-02-18T11:31:35.696Z,46.17
2024-02-18T11:34:02.709Z,46.49
2024-02-18T11:36:29.636Z,45.83
2024-02-18T11:38:58.684Z,45.84
2024-02-18T11:41:33.375Z,46.12
2024-02-18T11:44:13.963Z,45.80
2024-02-18T11:46:42.909Z,45.65
2024-02-18T11:49:09.876Z,45.06
2024-02-18T11:51:37.851Z,44.96
2024-02-18T11:54:06.455Z,44.87
2024-02-18T11:56:33.350Z,44.94
2024-02-18T11:59:00.025Z,44.70
2024-02-18T12:01:27.761Z,44.72
2024-02-18T12:03:58.186Z,44.28
2024-02-18T12:06:25.628Z,44.68
2024-02-18T12:08:52.451Z,44.91
2024-02-18T12:11:19.146Z,44.87
2024-02-18T12:13:45.942Z,45.22
2024-02-18T12:16:12.977Z,44.93
2024-02-18T12:18:40.260Z,45.07
2024-02-18T12:21:08.206Z,45.92
2024-02-18T12:23:43.975Z,45.27
2024-02-18T12:26:10.741Z,44.81
2024-02-18T12:28:37.525Z,44.65
2024-02-18T12:31:04.270Z,45.10
2024-02-18T12:33:32.109Z,45.12
2024-02-18T12:35:59.137Z,45.37
2024-02-18T12:38:25.738Z,45.08
2024-02-18T12:40:56.883Z,45.21
2024-02-18T12:43:57.003Z,45.20
2024-02-18T12:46:13.320Z,44.72
2024-02-18T12:48:40.714Z,45.17
2024-02-18T12:51:15.382Z,45.77
2024-02-18T12:53:43.042Z,45.16
2024-02-18T12:56:11.117Z,44.71
2024-02-18T12:58:37.961Z,45.42
2024-02-18T13:01:09.458Z,44.59
2024-02-18T13:03:36.706Z,44.41
2024-02-18T13:06:04.112Z,44.67
2024-02-18T13:08:30.926Z,44.62
2024-02-18T13:10:58.466Z,44.24
2024-02-18T13:13:25.172Z,44.19
2024-02-18T13:15:53.245Z,44.41
2024-02-18T13:18:20.074Z,44.32
2024-02-18T13:20:46.806Z,44.22
2024-02-18T13:23:13.403Z,44.33
2024-02-18T13:25:40.134Z,44.24
2024-02-18T13:28:07.044Z,43.60
2024-02-18T13:30:33.879Z,43.76
2024-02-18T13:33:00.700Z,44.00
2024-02-18T13:35:27.310Z,43.61
2024-02-18T13:37:53.935Z,43.88
2024-02-18T13:40:20.723Z,43.79
2024-02-18T13:42:47.420Z,44.29
2024-02-18T13:45:14.164Z,44.37
2024-02-18T13:47:40.932Z,45.08
2024-02-18T13:50:09.058Z,44.41
2024-02-18T13:52:35.762Z,44.49
2024-02-18T13:55:02.952Z,44.47
2024-02-18T13:57:29.651Z,44.98
2024-02-18T13:59:57.815Z,44.58
2024-02-18T14:02:24.709Z,44.44
2024-02-18T14:04:52.577Z,44.39
2024-02-18T14:07:21.406Z,45.43
2024-02-18T14:09:50.068Z,44.74
2024-02-18T14:12:17.140Z,44.68
2024-02-18T14:14:49.440Z,44.74
2024-02-18T14:17:16.571Z,44.96
2024-02-18T14:19:43.495Z,45.34
2024-02-18T14:22:10.458Z,45.87
2024-02-18T14:24:37.296Z,45.09
2024-02-18T14:27:04.599Z,45.46
2024-02-18T14:29:31.317Z,45.58
2024-02-18T14:31:57.910Z,45.48
2024-02-18T14:34:24.660Z,46.40
2024-02-18T14:36:51.430Z,45.84
2024-02-18T14:39:18.171Z,47.34
2024-02-18T14:41:44.812Z,48.03
2024-02-18T14:44:11.489Z,47.62
2024-02-18T14:46:38.088Z,46.81
2024-02-18T14:49:04.780Z,46.91
2024-02-18T14:51:31.542Z,48.85
2024-02-18T14:53:58.197Z,46.21
2024-02-18T14:56:24.856Z,46.05
2024-02-18T14:58:51.437Z,47.00
2024-02-18T15:01:20.029Z,46.82
2024-02-18T15:03:46.885Z,45.94
2024-02-18T15:06:14.013Z,46.90
2024-02-18T15:08:40.939Z,46.29
2024-02-18T15:11:07.814Z,48.06
2024-02-18T15:13:34.529Z,47.28
2024-02-18T15:16:01.103Z,47.55
2024-02-18T15:18:27.903Z,48.93
2024-02-18T15:20:54.582Z,48.24
2024-02-18T15:23:21.430Z,48.44
2024-02-18T15:25:52.234Z,49.87
2024-02-18T15:28:19.311Z,50.64
2024-02-18T15:30:46.813Z,51.63
2024-02-18T15:33:13.605Z,51.47
2024-02-18T15:35:41.429Z,51.10
2024-02-18T15:38:08.401Z,52.26
2024-02-18T15:40:35.195Z,53.50
2024-02-18T15:43:02.539Z,53.82
2024-02-18T15:45:29.405Z,53.67
2024-02-18T15:47:57.465Z,54.57
2024-02-18T15:50:24.553Z,54.38
2024-02-18T15:52:51.361Z,54.51
2024-02-18T15:55:20.135Z,54.80
2024-02-18T15:57:47.125Z,54.75
2024-02-18T16:00:15.005Z,55.44
2024-02-18T16:02:41.672Z,57.06
2024-02-18T16:05:08.928Z,56.54
2024-02-18T16:07:35.681Z,59.43
2024-02-18T16:10:02.596Z,59.42
2024-02-18T16:12:29.336Z,59.42
2024-02-18T16:14:55.917Z,59.37
2024-02-18T16:17:25.021Z,59.80
2024-02-18T16:19:53.139Z,61.04
2024-02-18T16:22:19.982Z,62.09
2024-02-18T16:24:48.287Z,62.42
2024-02-18T16:27:14.982Z,62.71
2024-02-18T16:29:41.645Z,63.46
2024-02-18T16:32:10.471Z,63.78
2024-02-18T16:34:37.243Z,64.98
2024-02-18T16:37:04.259Z,65.16
2024-02-18T16:39:36.054Z,65.79
2024-02-18T16:42:04.060Z,66.88
2024-02-18T16:44:30.900Z,67.16
2024-02-18T16:46:57.657Z,67.71
2024-02-18T16:49:24.421Z,67.94
2024-02-18T16:51:51.128Z,67.99
2024-02-18T16:54:17.873Z,68.37
2024-02-18T16:56:44.446Z,68.49
2024-02-18T16:59:11.010Z,68.70
2024-02-18T17:01:37.782Z,68.86
2024-02-18T17:04:04.717Z,69.07
2024-02-18T17:06:31.718Z,69.51
2024-02-18T17:08:58.376Z,69.85
2024-02-18T17:11:24.992Z,70.13
2024-02-18T17:13:53.241Z,70.42
2024-02-18T17:16:20.097Z,70.60
2024-02-18T17:18:46.924Z,70.71
2024-02-18T17:21:13.601Z,70.28
2024-02-18T17:23:40.139Z,69.73
2024-02-18T17:26:06.855Z,69.50
2024-02-18T17:28:33.517Z,69.43
2024-02-18T17:31:00.287Z,69.09
2024-02-18T17:33:28.780Z,69.17
2024-02-18T17:35:55.520Z,68.75
2024-02-18T17:38:22.161Z,68.68
2024-02-18T17:40:48.847Z,68.11
2024-02-18T17:43:15.576Z,67.51
2024-02-18T17:45:42.456Z,67.36
2024-02-18T17:48:09.761Z,67.21
2024-02-18T17:50:39.711Z,67.19
2024-02-18T17:53:08.070Z,67.32
2024-02-18T17:55:34.667Z,67.46
2024-02-18T17:58:01.576Z,67.83
2024-02-18T18:00:29.289Z,68.36
2024-02-18T18:02:58.116Z,68.51
2024-02-18T18:05:24.881Z,68.80
2024-02-18T18:07:55.747Z,69.18
2024-02-18T18:10:23.823Z,69.22
2024-02-18T18:12:55.758Z,69.48
2024-02-18T18:15:23.663Z,69.71
2024-02-18T18:17:50.648Z,69.70
2024-02-18T18:20:17.663Z,69.98
2024-02-18T18:22:49.059Z,69.92
2024-02-18T18:25:16.366Z,69.98
2024-02-18T18:27:43.415Z,70.09
2024-02-18T18:30:10.412Z,70.15
2024-02-18T18:32:37.296Z,70.02
2024-02-18T18:35:05.488Z,70.08
2024-02-18T18:37:32.683Z,69.92
2024-02-18T18:40:00.610Z,69.78
2024-02-18T18:42:28.492Z,69.52
2024-02-18T18:44:55.096Z,69.75
2024-02-18T18:47:21.714Z,70.46
2024-02-18T18:49:52.658Z,70.67
2024-02-18T18:52:19.604Z,71.80
2024-02-18T18:54:46.347Z,72.46
2024-02-18T18:57:14.081Z,72.24
2024-02-18T18:59:40.947Z,72.37
2024-02-18T19:02:07.832Z,72.96
2024-02-18T19:04:34.636Z,72.98
2024-02-18T19:07:04.345Z,73.07
2024-02-18T19:09:34.489Z,73.48
2024-02-18T19:12:01.460Z,73.06
2024-02-18T19:14:28.605Z,73.51
2024-02-18T19:16:55.909Z,73.41
2024-02-18T19:19:25.613Z,73.85
2024-02-18T19:22:00.286Z,73.88
2024-02-18T19:24:27.902Z,74.16
2024-02-18T19:26:54.518Z,73.90
2024-02-18T19:29:24.116Z,73.30
2024-02-18T19:31:55.454Z,73.10
2024-02-18T19:34:22.271Z,72.62
2024-02-18T19:36:51.620Z,71.31
2024-02-18T19:39:18.751Z,71.15
2024-02-18T19:41:47.178Z,70.67
2024-02-18T19:44:14.674Z,70.20
2024-02-18T19:46:42.280Z,69.71
2024-02-18T19:49:12.755Z,70.05
2024-02-18T19:51:48.885Z,70.77
2024-02-18T19:54:15.948Z,70.74
2024-02-18T19:56:43.637Z,70.59
2024-02-18T19:59:12.055Z,71.02
2024-02-18T20:01:38.988Z,71.38
2024-02-18T20:04:05.816Z,71.13
2024-02-18T20:06:32.638Z,71.35
2024-02-18T20:08:59.789Z,71.25
2024-02-18T20:11:29.777Z,71.77
2024-02-18T20:13:58.131Z,71.76
2024-02-18T20:16:24.822Z,72.20
2024-02-18T20:18:53.074Z,72.81
2024-02-18T20:21:20.637Z,73.19
2024-02-18T20:23:47.301Z,73.29
2024-02-18T20:26:20.411Z,73.50
2024-02-18T20:28:48.008Z,73.98
2024-02-18T20:31:21.286Z,73.51
2024-02-18T20:33:49.306Z,73.56
2024-02-18T20:36:17.800Z,73.50
2024-02-18T20:38:45.845Z,73.18
2024-02-18T20:41:13.036Z,72.78
2024-02-18T20:43:39.645Z,72.39
2024-02-18T20:46:06.431Z,72.51
2024-02-18T20:48:33.224Z,71.86
2024-02-18T20:50:59.888Z,71.00
2024-02-18T20:53:26.500Z,70.46
2024-02-18T20:55:53.043Z,70.23
2024-02-18T20:58:21.075Z,69.89
2024-02-18T21:00:48.460Z,69.62
2024-02-18T21:03:15.834Z,69.25
2024-02-18T21:05:43.660Z,69.01
2024-02-18T21:08:10.284Z,68.74
2024-02-18T21:10:36.966Z,68.59
2024-02-18T21:13:04.108Z,68.26
2024-02-18T21:15:30.823Z,68.04
2024-02-18T21:18:00.244Z,68.00
2024-02-18T21:20:27.285Z,68.36
2024-02-18T21:22:54.160Z,68.16
2024-02-18T21:25:21.287Z,67.89
2024-02-18T21:27:47.972Z,67.91
2024-02-18T21:30:14.802Z,67.08
2024-02-18T21:32:41.485Z,67.02
2024-02-18T21:35:08.500Z,67.68
2024-02-18T21:37:38.538Z,68.57
2024-02-18T21:40:07.193Z,68.71
2024-02-18T21:42:35.676Z,68.95
2024-02-18T21:45:02.686Z,69.44
2024-02-18T21:47:29.350Z,68.60
2024-02-18T21:49:56.237Z,69.18
2024-02-18T21:52:23.180Z,69.66
2024-02-18T21:54:51.115Z,69.43
2024-02-18T21:57:20.917Z,69.08
2024-02-18T21:59:47.492Z,69.49
2024-02-18T22:02:14.248Z,69.77
2024-02-18T22:04:41.200Z,69.88
2024-02-18T22:07:16.302Z,69.53
2024-02-18T22:09:45.717Z,68.66
2024-02-18T22:12:12.745Z,69.17
2024-02-18T22:14:39.388Z,68.63
2024-02-18T22:17:07.548Z,69.24
2024-02-18T22:19:34.543Z,69.32
2024-02-18T22:22:01.560Z,69.33
2024-02-18T22:24:28.692Z,68.83
2024-02-18T22:26:55.503Z,69.02
2024-02-18T22:29:22.472Z,69.38
2024-02-18T22:31:49.001Z,68.80
2024-02-18T22:34:18.750Z,69.32
2024-02-18T22:36:45.581Z,69.71
2024-02-18T22:39:13.529Z,69.66
2024-02-18T22:41:42.891Z,68.36
2024-02-18T22:44:09.486Z,69.09
2024-02-18T22:46:36.123Z,68.74
2024-02-18T22:49:03.168Z,68.95
2024-02-18T22:51:29.932Z,69.98
2024-02-18T22:53:56.593Z,68.93
2024-02-18T22:56:23.211Z,69.30
2024-02-18T22:58:50.507Z,69.54
2024-02-18T23:01:17.142Z,69.52
2024-02-18T23:03:43.869Z,68.96
2024-02-18T23:06:10.555Z,69.30
2024-02-18T23:08:40.726Z,69.72
2024-02-18T23:11:09.027Z,69.81
2024-02-18T23:13:35.900Z,69.49
2024-02-18T23:16:02.736Z,69.98
2024-02-18T23:18:29.488Z,70.19
2024-02-18T23:20:56.231Z,70.34
2024-02-18T23:23:22.849Z,70.77
2024-02-18T23:25:49.479Z,70.85
2024-02-18T23:28:16.215Z,71.21
2024-02-18T23:30:43.126Z,70.93
2024-02-18T23:33:09.927Z,69.39
2024-02-18T23:35:36.521Z,68.66
2024-02-18T23:38:05.226Z,69.00
2024-02-18T23:40:33.044Z,69.10
2024-02-18T23:43:00.022Z,69.34
2024-02-18T23:45:26.683Z,69.72
2024-02-18T23:47:53.322Z,69.66
2024-02-18T23:50:19.900Z,69.78
2024-02-18T23:52:46.539Z,69.42
2024-02-18T23:55:13.218Z,68.63
2024-02-18T23:57:39.859Z,68.76
